sensor_id;sensor_type;location;lat;lon;timestamp;pressure;altitude;pressure_sealevel;temperature;humidity
14612;BME280;7392;52.078;11.650;2023-05-11T00:02:01;100657.22;;;13.63;100.00
14612;BME280;7392;52.078;11.650;2023-05-11T00:04:28;100659.00;;;13.64;100.00
14612;BME280;7392;52.078;11.650;2023-05-11T00:06:56;100652.78;;;13.63;100.00
14612;BME280;7392;52.078;11.650;2023-05-11T00:09:24;100655.47;;;13.63;100.00
14612;BME280;7392;52.078;11.650;2023-05-11T00:11:52;100659.00;;;13.64;100.00
14612;BME280;7392;52.078;11.650;2023-05-11T00:14:20;100656.34;;;13.64;100.00
14612;BME280;7392;52.078;11.650;2023-05-11T00:16:49;100655.47;;;13.62;100.00
14612;BME280;7392;52.078;11.650;2023-05-11T00:19:17;100654.56;;;13.63;100.00
14612;BME280;7392;52.078;11.650;2023-05-11T00:21:45;100661.69;;;13.62;100.00
14612;BME280;7392;52.078;11.650;2023-05-11T00:24:12;100661.69;;;13.62;100.00
14612;BME280;7392;52.078;11.650;2023-05-11T00:26:40;100659.03;;;13.61;100.00
14612;BME280;7392;52.078;11.650;2023-05-11T00:29:08;100655.50;;;13.60;100.00
14612;BME280;7392;52.078;11.650;2023-05-11T00:31:36;100658.16;;;13.62;100.00
14612;BME280;7392;52.078;11.650;2023-05-11T00:34:05;100653.72;;;13.61;100.00
14612;BME280;7392;52.078;11.650;2023-05-11T00:36:33;100658.16;;;13.62;100.00
14612;BME280;7392;52.078;11.650;2023-05-11T00:39:01;100658.16;;;13.62;100.00
14612;BME280;7392;52.078;11.650;2023-05-11T00:41:29;100650.16;;;13.60;100.00
14612;BME280;7392;52.078;11.650;2023-05-11T00:43:57;100652.84;;;13.59;100.00
14612;BME280;7392;52.078;11.650;2023-05-11T00:46:25;100649.28;;;13.61;100.00
14612;BME280;7392;52.078;11.650;2023-05-11T00:48:54;100646.63;;;13.60;100.00
14612;BME280;7392;52.078;11.650;2023-05-11T00:51:23;100647.50;;;13.60;100.00
14612;BME280;7392;52.078;11.650;2023-05-11T00:53:51;100649.28;;;13.60;100.00
14612;BME280;7392;52.078;11.650;2023-05-11T00:56:19;100655.50;;;13.60;100.00
14612;BME280;7392;52.078;11.650;2023-05-11T00:58:48;100658.19;;;13.60;100.00
14612;BME280;7392;52.078;11.650;2023-05-11T01:01:15;100649.28;;;13.60;100.00
14612;BME280;7392;52.078;11.650;2023-05-11T01:03:45;100652.84;;;13.59;100.00
14612;BME280;7392;52.078;11.650;2023-05-11T01:06:16;100651.97;;;13.60;100.00
14612;BME280;7392;52.078;11.650;2023-05-11T01:08:53;100651.06;;;13.59;100.00
14612;BME280;7392;52.078;11.650;2023-05-11T01:11:27;100650.19;;;13.59;100.00
14612;BME280;7392;52.078;11.650;2023-05-11T01:13:59;100651.97;;;13.60;100.00
14612;BME280;7392;52.078;11.650;2023-05-11T01:16:31;100645.72;;;13.59;100.00
14612;BME280;7392;52.078;11.650;2023-05-11T01:19:07;100657.28;;;13.61;100.00
14612;BME280;7392;52.078;11.650;2023-05-11T01:21:38;100650.16;;;13.60;100.00
14612;BME280;7392;52.078;11.650;2023-05-11T01:24:25;100647.50;;;13.60;100.00
14612;BME280;7392;52.078;11.650;2023-05-11T01:27:19;100651.94;;;13.61;100.00
14612;BME280;7392;52.078;11.650;2023-05-11T01:30:10;100648.38;;;13.61;100.00
14612;BME280;7392;52.078;11.650;2023-05-11T01:32:39;100646.63;;;13.60;100.00
14612;BME280;7392;52.078;11.650;2023-05-11T01:35:12;100651.06;;;13.59;100.00
14612;BME280;7392;52.078;11.650;2023-05-11T01:37:45;100653.72;;;13.59;100.00
14612;BME280;7392;52.078;11.650;2023-05-11T01:40:16;100650.19;;;13.59;100.00
14612;BME280;7392;52.078;11.650;2023-05-11T01:42:47;100657.31;;;13.60;100.00
14612;BME280;7392;52.078;11.650;2023-05-11T01:45:17;100651.06;;;13.59;100.00
14612;BME280;7392;52.078;11.650;2023-05-11T01:47:47;100654.66;;;13.58;100.00
14612;BME280;7392;52.078;11.650;2023-05-11T01:50:17;100659.06;;;13.59;100.00
14612;BME280;7392;52.078;11.650;2023-05-11T01:52:48;100663.53;;;13.59;100.00
14612;BME280;7392;52.078;11.650;2023-05-11T01:55:20;100650.22;;;13.57;100.00
14612;BME280;7392;52.078;11.650;2023-05-11T01:57:51;100654.66;;;13.58;100.00
14612;BME280;7392;52.078;11.650;2023-05-11T02:00:21;100654.69;;;13.57;100.00
14612;BME280;7392;52.078;11.650;2023-05-11T02:02:52;100656.47;;;13.56;100.00
14612;BME280;7392;52.078;11.650;2023-05-11T02:05:22;100655.56;;;13.56;100.00
14612;BME280;7392;52.078;11.650;2023-05-11T02:07:51;100659.09;;;13.58;100.00
14612;BME280;7392;52.078;11.650;2023-05-11T02:10:24;100655.56;;;13.56;100.00
14612;BME280;7392;52.078;11.650;2023-05-11T02:12:53;100662.69;;;13.55;100.00
14612;BME280;7392;52.078;11.650;2023-05-11T02:15:25;100663.56;;;13.56;100.00
14612;BME280;7392;52.078;11.650;2023-05-11T02:17:54;100669.84;;;13.53;100.00
14612;BME280;7392;52.078;11.650;2023-05-11T02:20:23;100675.16;;;13.55;100.00
14612;BME280;7392;52.078;11.650;2023-05-11T02:22:52;100665.38;;;13.54;100.00
14612;BME280;7392;52.078;11.650;2023-05-11T02:25:21;100670.72;;;13.54;100.00
14612;BME280;7392;52.078;11.650;2023-05-11T02:27:50;100671.59;;;13.54;100.00
14612;BME280;7392;52.078;11.650;2023-05-11T02:30:18;100676.06;;;13.54;100.00
14612;BME280;7392;52.078;11.650;2023-05-11T02:32:50;100670.72;;;13.54;100.00
14612;BME280;7392;52.078;11.650;2023-05-11T02:35:22;100668.94;;;13.53;100.00
14612;BME280;7392;52.078;11.650;2023-05-11T02:37:54;100670.78;;;13.51;100.00
14612;BME280;7392;52.078;11.650;2023-05-11T02:40:28;100662.75;;;13.51;100.00
14612;BME280;7392;52.078;11.650;2023-05-11T02:42:59;100663.69;;;13.50;100.00
14612;BME280;7392;52.078;11.650;2023-05-11T02:45:30;100665.47;;;13.49;100.00
14612;BME280;7392;52.078;11.650;2023-05-11T02:48:05;100669.03;;;13.48;100.00
14612;BME280;7392;52.078;11.650;2023-05-11T02:50:36;100666.38;;;13.48;100.00
14612;BME280;7392;52.078;11.650;2023-05-11T02:53:10;100666.41;;;13.46;100.00
14612;BME280;7392;52.078;11.650;2023-05-11T02:55:42;100666.41;;;13.46;100.00
14612;BME280;7392;52.078;11.650;2023-05-11T02:58:10;100669.97;;;13.45;100.00
14612;BME280;7392;52.078;11.650;2023-05-11T03:00:42;100672.63;;;13.45;100.00
14612;BME280;7392;52.078;11.650;2023-05-11T03:03:12;100659.28;;;13.45;100.00
14612;BME280;7392;52.078;11.650;2023-05-11T03:05:40;100665.53;;;13.44;100.00
14612;BME280;7392;52.078;11.650;2023-05-11T03:08:07;100667.31;;;13.44;100.00
14612;BME280;7392;52.078;11.650;2023-05-11T03:10:35;100665.56;;;13.43;100.00
14612;BME280;7392;52.078;11.650;2023-05-11T03:13:04;100665.56;;;13.43;100.00
14612;BME280;7392;52.078;11.650;2023-05-11T03:15:33;100665.56;;;13.43;100.00
14612;BME280;7392;52.078;11.650;2023-05-11T03:18:02;100665.56;;;13.43;100.00
14612;BME280;7392;52.078;11.650;2023-05-11T03:20:35;100658.44;;;13.43;100.00
14612;BME280;7392;52.078;11.650;2023-05-11T03:23:05;100663.78;;;13.43;100.00
14612;BME280;7392;52.078;11.650;2023-05-11T03:25:34;100660.22;;;13.43;100.00
14612;BME280;7392;52.078;11.650;2023-05-11T03:28:03;100659.31;;;13.42;100.00
14612;BME280;7392;52.078;11.650;2023-05-11T03:30:33;100657.53;;;13.44;100.00
14612;BME280;7392;52.078;11.650;2023-05-11T03:33:01;100664.66;;;13.44;100.00
14612;BME280;7392;52.078;11.650;2023-05-11T03:35:33;100664.63;;;13.45;100.00
14612;BME280;7392;52.078;11.650;2023-05-11T03:38:03;100658.44;;;13.43;100.00
14612;BME280;7392;52.078;11.650;2023-05-11T03:40:32;100661.09;;;13.43;100.00
14612;BME280;7392;52.078;11.650;2023-05-11T03:43:01;100655.78;;;13.43;100.00
14612;BME280;7392;52.078;11.650;2023-05-11T03:45:31;100661.09;;;13.43;100.00
14612;BME280;7392;52.078;11.650;2023-05-11T03:48:03;100660.22;;;13.43;100.00
14612;BME280;7392;52.078;11.650;2023-05-11T03:50:31;100654.91;;;13.43;100.00
14612;BME280;7392;52.078;11.650;2023-05-11T03:53:01;100658.44;;;13.43;100.00
14612;BME280;7392;52.078;11.650;2023-05-11T03:55:31;100670.88;;;13.44;100.00
14612;BME280;7392;52.078;11.650;2023-05-11T03:57:58;100668.22;;;13.44;100.00
14612;BME280;7392;52.078;11.650;2023-05-11T04:00:29;100658.41;;;13.45;100.00
14612;BME280;7392;52.078;11.650;2023-05-11T04:03:02;100647.75;;;13.43;100.00
14612;BME280;7392;52.078;11.650;2023-05-11T04:05:31;100658.41;;;13.45;100.00
14612;BME280;7392;52.078;11.650;2023-05-11T04:08:03;100662.84;;;13.46;100.00
14612;BME280;7392;52.078;11.650;2023-05-11T04:10:31;100659.28;;;13.45;100.00
14612;BME280;7392;52.078;11.650;2023-05-11T04:12:59;100654.84;;;13.46;100.00
14612;BME280;7392;52.078;11.650;2023-05-11T04:15:27;100658.38;;;13.48;100.00
14612;BME280;7392;52.078;11.650;2023-05-11T04:17:55;100651.25;;;13.49;100.00
14612;BME280;7392;52.078;11.650;2023-05-11T04:20:23;100659.22;;;13.50;100.00
14612;BME280;7392;52.078;11.650;2023-05-11T04:22:51;100651.22;;;13.50;100.00
14612;BME280;7392;52.078;11.650;2023-05-11T04:25:20;100659.22;;;13.52;100.00
14612;BME280;7392;52.078;11.650;2023-05-11T04:27:48;100664.53;;;13.53;100.00
14612;BME280;7392;52.078;11.650;2023-05-11T04:30:16;100655.59;;;13.54;100.00
14612;BME280;7392;52.078;11.650;2023-05-11T04:32:46;100664.47;;;13.56;100.00
14612;BME280;7392;52.078;11.650;2023-05-11T04:35:14;100660.88;;;13.57;100.00
14612;BME280;7392;52.078;11.650;2023-05-11T04:37:42;100659.09;;;13.58;100.00
14612;BME280;7392;52.078;11.650;2023-05-11T04:40:11;100659.97;;;13.60;100.00
14612;BME280;7392;52.078;11.650;2023-05-11T04:42:42;100657.28;;;13.61;100.00
14612;BME280;7392;52.078;11.650;2023-05-11T04:45:15;100655.47;;;13.63;100.00
14612;BME280;7392;52.078;11.650;2023-05-11T04:47:43;100659.91;;;13.63;100.00
14612;BME280;7392;52.078;11.650;2023-05-11T04:50:11;100664.31;;;13.65;100.00
14612;BME280;7392;52.078;11.650;2023-05-11T04:52:39;100664.31;;;13.65;100.00
14612;BME280;7392;52.078;11.650;2023-05-11T04:55:07;100664.28;;;13.69;100.00
14612;BME280;7392;52.078;11.650;2023-05-11T04:57:36;100671.34;;;13.70;100.00
14612;BME280;7392;52.078;11.650;2023-05-11T05:00:08;100671.34;;;13.70;100.00
14612;BME280;7392;52.078;11.650;2023-05-11T05:02:36;100665.13;;;13.71;100.00
14612;BME280;7392;52.078;11.650;2023-05-11T05:05:05;100669.50;;;13.73;100.00
14612;BME280;7392;52.078;11.650;2023-05-11T05:07:33;100671.25;;;13.77;100.00
14612;BME280;7392;52.078;11.650;2023-05-11T05:10:00;100667.66;;;13.78;100.00
14612;BME280;7392;52.078;11.650;2023-05-11T05:12:30;100667.59;;;13.81;100.00
14612;BME280;7392;52.078;11.650;2023-05-11T05:14:57;100668.44;;;13.85;100.00
14612;BME280;7392;52.078;11.650;2023-05-11T05:17:27;100678.16;;;13.89;100.00
14612;BME280;7392;52.078;11.650;2023-05-11T05:19:55;100669.19;;;13.93;100.00
14612;BME280;7392;52.078;11.650;2023-05-11T05:22:23;100676.25;;;13.97;100.00
14612;BME280;7392;52.078;11.650;2023-05-11T05:24:51;100682.41;;;14.02;100.00
14612;BME280;7392;52.078;11.650;2023-05-11T05:27:19;100687.63;;;14.09;100.00
14612;BME280;7392;52.078;11.650;2023-05-11T05:29:47;100683.06;;;14.14;100.00
14612;BME280;7392;52.078;11.650;2023-05-11T05:32:15;100689.22;;;14.19;100.00
14612;BME280;7392;52.078;11.650;2023-05-11T05:34:44;100684.66;;;14.24;100.00
14612;BME280;7392;52.078;11.650;2023-05-11T05:37:13;100688.09;;;14.31;100.00
14612;BME280;7392;52.078;11.650;2023-05-11T05:39:41;100682.63;;;14.38;100.00
14612;BME280;7392;52.078;11.650;2023-05-11T05:42:11;100677.94;;;14.50;100.00
14612;BME280;7392;52.078;11.650;2023-05-11T05:44:39;100687.56;;;14.62;100.00
14612;BME280;7392;52.078;11.650;2023-05-11T05:47:07;100682.03;;;14.71;100.00
14612;BME280;7392;52.078;11.650;2023-05-11T05:49:36;100685.38;;;14.81;100.00
14612;BME280;7392;52.078;11.650;2023-05-11T05:52:06;100690.59;;;14.88;100.00
14612;BME280;7392;52.078;11.650;2023-05-11T05:54:34;100688.63;;;14.98;100.00
14612;BME280;7392;52.078;11.650;2023-05-11T05:57:03;100690.25;;;15.05;100.00
14612;BME280;7392;52.078;11.650;2023-05-11T05:59:31;100686.53;;;15.11;100.00
14612;BME280;7392;52.078;11.650;2023-05-11T06:01:59;100692.66;;;15.16;100.00
14612;BME280;7392;52.078;11.650;2023-05-11T06:04:28;100693.47;;;15.20;100.00
14612;BME280;7392;52.078;11.650;2023-05-11T06:06:56;100691.59;;;15.23;100.00
14612;BME280;7392;52.078;11.650;2023-05-11T06:09:26;100697.84;;;15.25;100.00
14612;BME280;7392;52.078;11.650;2023-05-11T06:11:54;100707.56;;;15.28;100.00
14612;BME280;7392;52.078;11.650;2023-05-11T06:14:24;100706.63;;;15.30;100.00
14612;BME280;7392;52.078;11.650;2023-05-11T06:16:52;100696.78;;;15.32;100.00
14612;BME280;7392;52.078;11.650;2023-05-11T06:19:20;100695.81;;;15.35;100.00
14612;BME280;7392;52.078;11.650;2023-05-11T06:21:49;100701.97;;;15.39;100.00
14612;BME280;7392;52.078;11.650;2023-05-11T06:24:17;100701.94;;;15.40;100.00
14612;BME280;7392;52.078;11.650;2023-05-11T06:26:47;100697.38;;;15.44;100.00
14612;BME280;7392;52.078;11.650;2023-05-11T06:29:15;100692.84;;;15.47;100.00
14612;BME280;7392;52.078;11.650;2023-05-11T06:31:45;100698.09;;;15.52;100.00
14612;BME280;7392;52.078;11.650;2023-05-11T06:34:18;100698.03;;;15.55;100.00
14612;BME280;7392;52.078;11.650;2023-05-11T06:36:46;100698.91;;;15.56;100.00
14612;BME280;7392;52.078;11.650;2023-05-11T06:39:14;100689.94;;;15.58;100.00
14612;BME280;7392;52.078;11.650;2023-05-11T06:41:42;100691.66;;;15.61;100.00
14612;BME280;7392;52.078;11.650;2023-05-11T06:44:11;100696.94;;;15.64;100.00
14612;BME280;7392;52.078;11.650;2023-05-11T06:46:42;100688.81;;;15.67;100.00
14612;BME280;7392;52.078;11.650;2023-05-11T06:49:10;100693.19;;;15.71;100.00
14612;BME280;7392;52.078;11.650;2023-05-11T06:51:38;100692.22;;;15.77;100.00
14612;BME280;7392;52.078;11.650;2023-05-11T06:54:06;100692.94;;;15.83;100.00
14612;BME280;7392;52.078;11.650;2023-05-11T06:56:35;100686.44;;;15.94;100.00
14612;BME280;7392;52.078;11.650;2023-05-11T06:59:03;100690.63;;;16.04;100.00
14612;BME280;7392;52.078;11.650;2023-05-11T07:01:32;100684.91;;;16.18;100.00
14612;BME280;7392;52.078;11.650;2023-05-11T07:04:00;100681.88;;;16.32;100.00
14612;BME280;7392;52.078;11.650;2023-05-11T07:06:28;100677.97;;;16.43;100.00
14612;BME280;7392;52.078;11.650;2023-05-11T07:08:56;100686.81;;;16.47;100.00
14612;BME280;7392;52.078;11.650;2023-05-11T07:11:24;100688.47;;;16.51;100.00
14612;BME280;7392;52.078;11.650;2023-05-11T07:13:53;100692.81;;;16.57;100.00
14612;BME280;7392;52.078;11.650;2023-05-11T07:16:21;100695.34;;;16.61;100.00
14612;BME280;7392;52.078;11.650;2023-05-11T07:18:51;100694.34;;;16.66;100.00
14612;BME280;7392;52.078;11.650;2023-05-11T07:21:19;100697.03;;;16.66;100.00
14612;BME280;7392;52.078;11.650;2023-05-11T07:23:48;100697.91;;;16.66;100.00
14612;BME280;7392;52.078;11.650;2023-05-11T07:26:16;100697.78;;;16.71;100.00
14612;BME280;7392;52.078;11.650;2023-05-11T07:28:43;100697.72;;;16.72;100.00
14612;BME280;7392;52.078;11.650;2023-05-11T07:31:11;100691.44;;;16.73;100.00
14612;BME280;7392;52.078;11.650;2023-05-11T07:33:39;100693.16;;;16.76;100.00
14612;BME280;7392;52.078;11.650;2023-05-11T07:36:09;100699.31;;;16.79;100.00
14612;BME280;7392;52.078;11.650;2023-05-11T07:38:36;100690.38;;;16.79;100.00
14612;BME280;7392;52.078;11.650;2023-05-11T07:41:05;100697.38;;;16.86;100.00
14612;BME280;7392;52.078;11.650;2023-05-11T07:43:36;100698.06;;;16.93;100.00
14612;BME280;7392;52.078;11.650;2023-05-11T07:46:04;100696.06;;;16.99;100.00
14612;BME280;7392;52.078;11.650;2023-05-11T07:48:32;100688.66;;;17.08;100.00
14612;BME280;7392;52.078;11.650;2023-05-11T07:51:00;100692.81;;;17.18;100.00
14612;BME280;7392;52.078;11.650;2023-05-11T07:53:30;100694.31;;;17.28;100.00
14612;BME280;7392;52.078;11.650;2023-05-11T07:55:58;100687.69;;;17.40;100.00
14612;BME280;7392;52.078;11.650;2023-05-11T07:58:26;100694.56;;;17.49;100.00
14612;BME280;7392;52.078;11.650;2023-05-11T08:00:55;100696.19;;;17.54;100.00
14612;BME280;7392;52.078;11.650;2023-05-11T08:03:23;100701.31;;;17.62;100.00
14612;BME280;7392;52.078;11.650;2023-05-11T08:05:51;100685.88;;;17.69;100.00
14612;BME280;7392;52.078;11.650;2023-05-11T08:08:19;100687.28;;;17.81;100.00
14612;BME280;7392;52.078;11.650;2023-05-11T08:10:48;100694.00;;;17.96;100.00
14612;BME280;7392;52.078;11.650;2023-05-11T08:13:16;100682.78;;;18.09;100.00
14612;BME280;7392;52.078;11.650;2023-05-11T08:15:44;100687.72;;;18.22;100.00
14612;BME280;7392;52.078;11.650;2023-05-11T08:18:12;100683.72;;;18.34;100.00
14612;BME280;7392;52.078;11.650;2023-05-11T08:20:40;100668.97;;;18.45;100.00
14612;BME280;7392;52.078;11.650;2023-05-11T08:23:08;100672.97;;;18.59;100.00
14612;BME280;7392;52.078;11.650;2023-05-11T08:25:52;100669.81;;;18.71;100.00
14612;BME280;7392;52.078;11.650;2023-05-11T08:28:20;100669.50;;;18.79;100.00
14612;BME280;7392;52.078;11.650;2023-05-11T08:30:54;100668.97;;;18.94;100.00
14612;BME280;7392;52.078;11.650;2023-05-11T08:33:22;100675.69;;;19.06;100.00
14612;BME280;7392;52.078;11.650;2023-05-11T08:36:04;100680.75;;;19.15;100.00
14612;BME280;7392;52.078;11.650;2023-05-11T08:38:33;100673.38;;;19.20;100.00
14612;BME280;7392;52.078;11.650;2023-05-11T08:41:02;100674.44;;;19.38;100.00
14612;BME280;7392;52.078;11.650;2023-05-11T08:43:33;100672.88;;;19.55;100.00
14612;BME280;7392;52.078;11.650;2023-05-11T08:46:03;100675.13;;;19.66;100.00
14612;BME280;7392;52.078;11.650;2023-05-11T08:48:33;100678.31;;;19.77;100.00
14612;BME280;7392;52.078;11.650;2023-05-11T08:51:01;100669.03;;;19.84;100.00
14612;BME280;7392;52.078;11.650;2023-05-11T08:53:30;100666.38;;;19.83;98.87
14612;BME280;7392;52.078;11.650;2023-05-11T08:55:58;100670.78;;;19.85;98.51
14612;BME280;7392;52.078;11.650;2023-05-11T08:58:28;100678.53;;;19.93;98.16
14612;BME280;7392;52.078;11.650;2023-05-11T09:00:57;100673.81;;;19.98;96.89
14612;BME280;7392;52.078;11.650;2023-05-11T09:03:27;100675.41;;;20.04;96.72
14612;BME280;7392;52.078;11.650;2023-05-11T09:05:56;100670.41;;;20.15;94.78
14612;BME280;7392;52.078;11.650;2023-05-11T09:08:27;100665.22;;;20.31;94.52
14612;BME280;7392;52.078;11.650;2023-05-11T09:10:57;100666.78;;;20.36;93.08
14612;BME280;7392;52.078;11.650;2023-05-11T09:13:25;100673.72;;;20.42;92.31
14612;BME280;7392;52.078;11.650;2023-05-11T09:15:55;100673.53;;;20.47;92.34
14612;BME280;7392;52.078;11.650;2023-05-11T09:18:22;100677.94;;;20.48;90.21
14612;BME280;7392;52.078;11.650;2023-05-11T09:20:50;100667.09;;;20.49;90.22
14612;BME280;7392;52.078;11.650;2023-05-11T09:23:23;100665.25;;;20.51;89.37
14612;BME280;7392;52.078;11.650;2023-05-11T09:25:51;100661.31;;;20.59;89.95
14612;BME280;7392;52.078;11.650;2023-05-11T09:28:24;100652.16;;;20.63;89.70
14612;BME280;7392;52.078;11.650;2023-05-11T09:30:54;100659.31;;;20.64;88.77
14612;BME280;7392;52.078;11.650;2023-05-11T09:33:24;100662.69;;;20.69;86.53
14612;BME280;7392;52.078;11.650;2023-05-11T09:35:52;100658.88;;;20.73;84.93
14612;BME280;7392;52.078;11.650;2023-05-11T09:38:20;100656.19;;;20.73;83.61
14612;BME280;7392;52.078;11.650;2023-05-11T09:40:53;100658.34;;;20.65;81.18
14612;BME280;7392;52.078;11.650;2023-05-11T09:43:23;100655.78;;;20.62;82.02
14612;BME280;7392;52.078;11.650;2023-05-11T09:45:52;100662.59;;;20.70;82.60
14612;BME280;7392;52.078;11.650;2023-05-11T09:48:29;100656.97;;;20.75;82.33
14612;BME280;7392;52.078;11.650;2023-05-11T09:51:01;100656.19;;;20.73;81.61
14612;BME280;7392;52.078;11.650;2023-05-11T09:53:37;100663.22;;;20.77;80.45
14612;BME280;7392;52.078;11.650;2023-05-11T09:56:06;100667.84;;;20.73;76.05
14612;BME280;7392;52.078;11.650;2023-05-11T09:58:44;100653.91;;;20.64;70.25
14612;BME280;7392;52.078;11.650;2023-05-11T10:01:17;100663.22;;;20.77;70.14
14612;BME280;7392;52.078;11.650;2023-05-11T10:03:51;100670.06;;;20.84;70.00
14612;BME280;7392;52.078;11.650;2023-05-11T10:06:42;100664.69;;;21.03;70.88
14612;BME280;7392;52.078;11.650;2023-05-11T10:09:12;100666.44;;;21.23;71.69
14612;BME280;7392;52.078;11.650;2023-05-11T10:11:43;100658.09;;;21.28;69.81
14612;BME280;7392;52.078;11.650;2023-05-11T10:14:11;100662.06;;;21.21;69.60
14612;BME280;7392;52.078;11.650;2023-05-11T10:16:41;100667.66;;;21.16;70.26
14612;BME280;7392;52.078;11.650;2023-05-11T10:19:11;100669.22;;;21.22;71.17
14612;BME280;7392;52.078;11.650;2023-05-11T10:21:40;100670.00;;;21.24;71.31
14612;BME280;7392;52.078;11.650;2023-05-11T10:24:09;100668.41;;;21.20;70.29
14612;BME280;7392;52.078;11.650;2023-05-11T10:26:37;100676.06;;;21.10;70.17
14612;BME280;7392;52.078;11.650;2023-05-11T10:29:05;100672.06;;;21.00;69.99
14612;BME280;7392;52.078;11.650;2023-05-11T10:31:34;100669.84;;;20.89;69.67
14612;BME280;7392;52.078;11.650;2023-05-11T10:34:04;100661.84;;;20.87;70.23
14612;BME280;7392;52.078;11.650;2023-05-11T10:36:34;100663.63;;;20.87;70.48
14612;BME280;7392;52.078;11.650;2023-05-11T10:39:02;100665.47;;;20.86;70.45
14612;BME280;7392;52.078;11.650;2023-05-11T10:41:44;100663.94;;;20.81;69.26
14612;BME280;7392;52.078;11.650;2023-05-11T10:44:36;100665.25;;;20.72;69.34
14612;BME280;7392;52.078;11.650;2023-05-11T10:47:31;100653.97;;;20.62;70.47
14612;BME280;7392;52.078;11.650;2023-05-11T10:50:22;100674.00;;;20.57;70.51
14612;BME280;7392;52.078;11.650;2023-05-11T10:53:06;100668.72;;;20.53;70.43
14612;BME280;7392;52.078;11.650;2023-05-11T10:55:49;100665.50;;;20.45;70.50
14612;BME280;7392;52.078;11.650;2023-05-11T10:58:31;100661.25;;;20.40;71.12
14612;BME280;7392;52.078;11.650;2023-05-11T11:01:20;100663.78;;;20.43;72.17
14612;BME280;7392;52.078;11.650;2023-05-11T11:03:56;100659.91;;;20.50;73.04
14612;BME280;7392;52.078;11.650;2023-05-11T11:06:24;100670.28;;;20.59;73.58
14612;BME280;7392;52.078;11.650;2023-05-11T11:08:57;100670.19;;;20.61;72.91
14612;BME280;7392;52.078;11.650;2023-05-11T11:11:30;100649.63;;;20.58;71.79
14612;BME280;7392;52.078;11.650;2023-05-11T11:14:00;100666.09;;;20.52;70.65
14612;BME280;7392;52.078;11.650;2023-05-11T11:19:47;100667.47;;;20.42;71.36
14612;BME280;7392;52.078;11.650;2023-05-11T11:22:43;100656.81;;;20.39;71.44
14612;BME280;7392;52.078;11.650;2023-05-11T11:25:50;100661.47;;;20.35;71.85
14612;BME280;7392;52.078;11.650;2023-05-11T11:28:18;100665.16;;;20.32;71.38
14612;BME280;7392;52.078;11.650;2023-05-11T11:30:46;100661.59;;;20.32;71.69
14612;BME280;7392;52.078;11.650;2023-05-11T11:33:31;100673.25;;;20.32;71.22
14612;BME280;7392;52.078;11.650;2023-05-11T11:36:00;100661.31;;;20.38;71.19
14612;BME280;7392;52.078;11.650;2023-05-11T11:38:29;100665.63;;;20.42;71.23
14612;BME280;7392;52.078;11.650;2023-05-11T11:41:00;100666.16;;;20.50;71.13
14612;BME280;7392;52.078;11.650;2023-05-11T11:43:42;100665.91;;;20.57;70.80
14612;BME280;7392;52.078;11.650;2023-05-11T11:46:24;100667.34;;;20.65;71.09
14612;BME280;7392;52.078;11.650;2023-05-11T11:49:05;100659.22;;;20.86;71.68
14612;BME280;7392;52.078;11.650;2023-05-11T11:51:34;100670.28;;;20.99;70.00
14612;BME280;7392;52.078;11.650;2023-05-11T11:54:02;100673.78;;;21.01;69.80
14612;BME280;7392;52.078;11.650;2023-05-11T11:56:42;100661.97;;;21.03;69.61
14612;BME280;7392;52.078;11.650;2023-05-11T11:59:12;100669.69;;;21.11;69.69
14612;BME280;7392;52.078;11.650;2023-05-11T12:01:42;100672.25;;;21.14;69.38
14612;BME280;7392;52.078;11.650;2023-05-11T12:04:38;100664.16;;;21.14;67.86
14612;BME280;7392;52.078;11.650;2023-05-11T12:07:14;100662.84;;;21.23;68.72
14612;BME280;7392;52.078;11.650;2023-05-11T12:09:44;100659.47;;;21.37;68.96
14612;BME280;7392;52.078;11.650;2023-05-11T12:12:16;100665.94;;;21.53;68.76
14612;BME280;7392;52.078;11.650;2023-05-11T12:14:45;100665.31;;;21.65;68.22
14612;BME280;7392;52.078;11.650;2023-05-11T12:17:22;100658.19;;;21.82;68.41
14612;BME280;7392;52.078;11.650;2023-05-11T12:19:50;100665.53;;;21.97;68.26
14612;BME280;7392;52.078;11.650;2023-05-11T12:22:22;100655.91;;;22.09;67.51
14612;BME280;7392;52.078;11.650;2023-05-11T12:24:50;100659.97;;;22.18;66.77
14612;BME280;7392;52.078;11.650;2023-05-11T12:27:19;100659.47;;;22.27;64.83
14612;BME280;7392;52.078;11.650;2023-05-11T12:29:48;100661.97;;;22.32;63.34
14612;BME280;7392;52.078;11.650;2023-05-11T12:32:24;100661.50;;;22.41;62.93
14612;BME280;7392;52.078;11.650;2023-05-11T12:34:59;100660.16;;;22.50;63.03
14612;BME280;7392;52.078;11.650;2023-05-11T12:37:28;100665.56;;;22.50;61.91
14612;BME280;7392;52.078;11.650;2023-05-11T12:39:57;100659.25;;;22.49;61.70
14612;BME280;7392;52.078;11.650;2023-05-11T12:42:26;100661.63;;;22.55;62.54
14612;BME280;7392;52.078;11.650;2023-05-11T12:44:54;100650.16;;;22.68;63.89
14612;BME280;7392;52.078;11.650;2023-05-11T12:47:22;100658.41;;;22.82;63.73
14612;BME280;7392;52.078;11.650;2023-05-11T12:49:50;100661.53;;;23.08;62.95
14612;BME280;7392;52.078;11.650;2023-05-11T12:52:22;100654.91;;;23.29;61.92
14612;BME280;7392;52.078;11.650;2023-05-11T12:54:50;100651.06;;;23.49;61.38
14612;BME280;7392;52.078;11.650;2023-05-11T12:57:24;100648.66;;;23.75;60.25
14612;BME280;7392;52.078;11.650;2023-05-11T13:00:10;100648.81;;;24.04;59.77
14612;BME280;7392;52.078;11.650;2023-05-11T13:02:44;100643.91;;;24.25;59.36
14612;BME280;7392;52.078;11.650;2023-05-11T13:05:12;100637.69;;;24.68;61.74